Time;durP1;ratioP1;P1;durP2;ratioP2;P2;SDS_P1;SDS_P2;PMS_P1;PMS_P2;Temp;Humidity;BMP_temperature;BMP_pressure;BME280_temperature;BME280_humidity;BME280_pressure;Samples;Min_cycle;Max_cycle;Signal;HPM_P1;HPM_P2
2022/02/01 00:05:04;;;;;;;18.40;4.07;;;;;;;2.38;100.00;101947.44;10457546;28;20424;-56
2022/02/01 00:10:16;;;;;;;25.05;3.47;;;;;;;2.35;100.00;101953.47;10457911;28;20052;-55
2022/02/01 00:37:00;;;;;;;21.88;4.95;;;;;;;2.31;100.00;101969.88;10456634;28;20400;-58
2022/02/01 00:42:03;;;;;;;15.63;2.80;;;;;;;2.29;100.00;101981.94;10456585;28;20056;-52
2022/02/01 00:47:06;;;;;;;20.45;3.42;;;;;;;2.20;100.00;101993.19;10456673;28;20055;-55
2022/02/01 00:52:09;;;;;;;20.95;3.17;;;;;;;2.22;100.00;101978.53;10456074;28;20057;-54
2022/02/01 00:57:13;;;;;;;22.77;3.55;;;;;;;2.15;100.00;101983.72;10456319;28;20098;-57
2022/02/01 01:02:15;;;;;;;30.25;3.60;;;;;;;2.23;100.00;101967.31;10455905;28;20523;-56
2022/02/01 01:07:18;;;;;;;20.70;3.88;;;;;;;2.39;100.00;101934.50;10469936;28;20059;-56
2022/02/01 01:12:20;;;;;;;11.20;2.72;;;;;;;2.39;100.00;101928.50;10460618;28;20049;-56
2022/02/01 01:43:52;;;;;;;27.75;4.32;;;;;;;2.67;100.00;101972.28;10455783;28;20045;-57
2022/02/01 01:54:17;;;;;;;16.45;3.85;;;;;;;2.70;100.00;101964.50;10462737;28;20401;-58
2022/02/01 01:59:20;;;;;;;25.10;4.10;;;;;;;2.73;100.00;101967.09;10462359;28;20424;-58
2022/02/01 02:04:23;;;;;;;18.77;3.17;;;;;;;2.71;100.00;101977.44;10462327;28;20055;-58
2022/02/01 02:09:25;;;;;;;22.38;3.55;;;;;;;2.76;100.00;101965.31;10461920;28;20068;-54
2022/02/01 02:14:30;;;;;;;20.00;4.05;;;;;;;2.77;100.00;101948.97;10460847;28;20132;-54
2022/02/01 02:19:33;;;;;;;17.58;3.00;;;;;;;2.78;100.00;101973.94;10461193;28;20041;-55
2022/02/01 02:24:38;;;;;;;20.50;3.00;;;;;;;2.83;100.00;101978.25;10461303;28;20053;-60
2022/02/01 02:29:40;;;;;;;17.80;3.30;;;;;;;2.66;100.00;101965.41;10460501;28;20078;-54
2022/02/01 02:34:45;;;;;;;23.95;3.13;;;;;;;2.68;100.00;101961.09;10460947;28;20481;-56
2022/02/01 02:40:08;;;;;;;10.65;2.78;;;;;;;2.69;100.00;101955.91;10460948;28;20045;-56
2022/02/01 02:45:15;;;;;;;15.10;3.42;;;;;;;2.62;100.00;101953.34;10461054;28;20051;-56
2022/02/01 02:50:22;;;;;;;16.35;2.42;;;;;;;2.67;100.00;101939.50;10460179;28;20060;-56
2022/02/01 02:55:24;;;;;;;13.43;2.05;;;;;;;2.64;100.00;101933.50;10460164;28;20486;-56
2022/02/01 03:00:27;;;;;;;16.58;2.47;;;;;;;2.60;100.00;101917.16;10459885;28;20048;-58
2022/02/01 03:05:29;;;;;;;16.55;2.85;;;;;;;2.66;100.00;101931.78;10460610;28;20052;-54
2022/02/01 03:10:32;;;;;;;13.73;2.38;;;;;;;2.70;100.00;101921.41;10459215;28;20400;-59
2022/02/01 03:15:44;;;;;;;26.88;3.35;;;;;;;2.69;100.00;101922.28;10459192;28;20375;-54
2022/02/01 03:20:46;;;;;;;26.55;2.88;;;;;;;2.66;100.00;101904.19;10458093;28;20481;-58
2022/02/01 03:25:48;;;;;;;13.13;2.78;;;;;;;2.70;100.00;101902.44;10458618;28;20508;-55
2022/02/01 03:30:51;;;;;;;21.10;3.00;;;;;;;2.78;100.00;101890.31;10459238;28;20059;-57
2022/02/01 03:35:53;;;;;;;13.02;2.85;;;;;;;2.77;100.00;101891.19;10458649;28;20440;-54
2022/02/01 03:40:55;;;;;;;14.82;4.10;;;;;;;2.84;100.00;101858.38;10458930;28;20156;-58
2022/02/01 03:45:58;;;;;;;20.17;3.05;;;;;;;2.94;100.00;101871.22;10477062;28;20043;-55
2022/02/01 03:51:00;;;;;;;21.17;3.58;;;;;;;2.84;100.00;101866.13;10458971;28;20137;-56
2022/02/01 03:56:04;;;;;;;7.85;1.83;;;;;;;2.86;100.00;101857.50;10458237;28;20072;-54
2022/02/01 04:01:06;;;;;;;15.93;2.58;;;;;;;2.83;100.00;101864.44;10457666;28;20063;-56
2022/02/01 04:06:09;;;;;;;10.80;3.13;;;;;;;2.77;100.00;101842.91;10457473;28;20485;-54
2022/02/01 04:11:11;;;;;;;17.27;2.45;;;;;;;2.75;100.00;101854.13;10457042;28;20056;-57
2022/02/01 04:16:15;;;;;;;18.48;2.35;;;;;;;2.69;100.00;101843.81;10457287;28;20048;-54
2022/02/01 04:21:17;;;;;;;10.82;2.40;;;;;;;2.79;100.00;101841.16;10456943;28;20476;-53
2022/02/01 04:26:19;;;;;;;6.10;2.38;;;;;;;2.70;100.00;101836.06;10476314;28;20049;-55
2022/02/01 04:31:22;;;;;;;8.38;2.42;;;;;;;2.74;100.00;101842.06;10456936;28;20053;-53
2022/02/01 04:36:24;;;;;;;14.10;3.03;;;;;;;2.69;100.00;101857.63;10456614;28;20103;-55
2022/02/01 04:41:27;;;;;;;13.05;2.38;;;;;;;2.68;100.00;101844.72;10456379;28;20061;-56
2022/02/01 04:46:30;;;;;;;19.02;2.50;;;;;;;2.72;100.00;101846.38;10456583;28;20052;-56
2022/02/01 04:51:33;;;;;;;13.85;2.47;;;;;;;2.71;100.00;101840.38;10456158;28;20127;-55
2022/02/01 04:56:36;;;;;;;12.77;3.13;;;;;;;2.78;100.00;101831.69;10456233;28;20051;-55
2022/02/01 05:01:38;;;;;;;14.85;3.13;;;;;;;2.95;100.00;101830.69;10456529;28;20129;-55
2022/02/01 05:06:41;;;;;;;17.20;3.33;;;;;;;2.77;100.00;101822.22;10455925;28;20409;-57
2022/02/01 05:11:44;;;;;;;12.23;3.35;;;;;;;2.91;100.00;101816.06;10455731;28;20057;-52
2022/02/01 05:21:56;;;;;;;15.23;2.72;;;;;;;2.77;100.00;101756.69;10459395;28;20053;-55
2022/02/01 05:27:00;;;;;;;13.32;2.65;;;;;;;2.76;100.00;101740.31;10463721;28;20063;-56
2022/02/01 05:32:22;;;;;;;10.63;3.33;;;;;;;2.88;100.00;101735.91;10463534;28;20057;-55
2022/02/01 05:37:25;;;;;;;;;;;;;;;2.87;100.00;101713.50;10463590;28;20374;-56
2022/02/01 05:42:38;;;;;;;14.55;2.28;;;;;;;2.72;100.00;101714.50;10470884;28;19963;-55
2022/02/01 05:47:40;;;;;;;8.73;1.67;;;;;;;2.71;100.00;101712.81;10462826;28;20051;-55
2022/02/01 05:52:43;;;;;;;11.57;2.75;;;;;;;2.80;100.00;101723.03;10463078;28;20052;-55
2022/02/01 05:57:45;;;;;;;13.98;2.92;;;;;;;2.94;100.00;101709.94;10462469;28;20052;-55
2022/02/01 06:02:50;;;;;;;17.48;3.60;;;;;;;3.02;100.00;101702.13;10462347;28;20052;-58
2022/02/01 06:07:52;;;;;;;13.98;3.60;;;;;;;2.91;100.00;101687.59;10462370;28;20053;-57
2022/02/01 06:12:55;;;;;;;14.90;4.32;;;;;;;3.03;100.00;101691.75;10462888;28;20052;-53
2022/02/01 06:17:57;;;;;;;13.20;3.85;;;;;;;3.12;100.00;101681.28;10463755;28;20049;-53
2022/02/01 06:23:02;;;;;;;19.67;4.68;;;;;;;3.13;100.00;101675.25;10474783;28;20132;-53
2022/02/01 06:28:04;;;;;;;21.92;5.25;;;;;;;3.16;100.00;101675.22;10460309;28;20074;-53
2022/02/01 06:33:07;;;;;;;18.23;5.15;;;;;;;3.20;100.00;101681.19;10461356;28;20067;-53
2022/02/01 06:38:12;;;;;;;25.83;5.60;;;;;;;3.23;100.00;101662.16;10460039;28;20063;-56
2022/02/01 06:43:15;;;;;;;16.35;5.18;;;;;;;3.17;100.00;101650.19;10459823;28;20051;-56
2022/02/01 06:48:18;;;;;;;24.20;6.03;;;;;;;3.24;100.00;101646.63;10460450;28;20051;-54
2022/02/01 06:53:21;;;;;;;20.42;5.80;;;;;;;3.31;100.00;101650.88;10460777;28;20131;-55
2022/02/01 06:58:23;;;;;;;21.85;6.90;;;;;;;3.31;100.00;101648.28;10460278;28;20059;-56
2022/02/01 07:03:26;;;;;;;20.27;6.57;;;;;;;3.38;100.00;101646.47;10459929;28;20489;-55
2022/02/01 07:08:28;;;;;;;16.58;7.22;;;;;;;3.42;100.00;101640.34;10459470;28;20489;-54
2022/02/01 07:13:31;;;;;;;21.92;10.85;;;;;;;3.47;100.00;101638.56;10459101;28;20486;-55
2022/02/01 07:18:33;;;;;;;23.45;9.18;;;;;;;3.54;100.00;101632.41;10459637;28;20049;-55
2022/02/01 07:23:36;;;;;;;25.05;10.85;;;;;;;3.41;100.00;101622.25;10458820;28;20052;-58
2022/02/01 07:28:39;;;;;;;27.42;14.90;;;;;;;3.42;100.00;101618.78;10457908;28;20045;-55
2022/02/01 07:33:41;;;;;;;24.65;12.93;;;;;;;3.55;100.00;101612.56;10458363;28;20053;-51
2022/02/01 07:38:44;;;;;;;41.47;19.02;;;;;;;3.51;100.00;101616.06;10476314;28;20080;-56
2022/02/01 07:43:46;;;;;;;28.08;16.25;;;;;;;3.53;100.00;101594.44;10457602;28;20053;-54
2022/02/01 07:48:49;;;;;;;41.67;19.33;;;;;;;3.51;100.00;101579.81;10458437;28;20052;-55
2022/02/01 07:53:51;;;;;;;51.42;20.23;;;;;;;3.58;100.00;101578.84;10457963;28;20056;-55
2022/02/01 07:58:53;;;;;;;48.20;24.38;;;;;;;3.67;100.00;101576.09;10456560;28;20045;-56
2022/02/01 08:03:56;;;;;;;35.97;21.65;;;;;;;3.69;100.00;101566.56;10457671;28;20048;-57
2022/02/01 08:09:04;;;;;;;37.70;22.35;;;;;;;3.75;100.00;101565.63;10457396;28;20053;-55
2022/02/01 08:19:35;;;;;;;53.78;29.70;;;;;;;3.77;100.00;101556.09;10457116;28;20041;-54
2022/02/01 08:24:39;;;;;;;48.03;28.80;;;;;;;3.79;100.00;101536.19;10456931;28;20041;-58
2022/02/01 08:29:41;;;;;;;31.75;21.23;;;;;;;4.01;100.00;101526.28;10457134;28;20049;-56
2022/02/01 08:34:43;;;;;;;54.58;28.50;;;;;;;3.96;100.00;101519.50;10455891;28;20059;-56
2022/02/01 08:39:46;;;;;;;36.53;22.83;;;;;;;4.04;100.00;101502.91;10455788;28;20496;-58
2022/02/01 08:44:48;;;;;;;32.13;21.85;;;;;;;4.08;100.00;101491.63;10455494;28;20041;-56
2022/02/01 08:49:51;;;;;;;37.53;24.20;;;;;;;4.12;100.00;101482.06;10456398;28;20051;-56
2022/02/01 08:54:54;;;;;;;39.20;24.25;;;;;;;4.17;100.00;101472.44;10474559;28;20044;-56
2022/02/01 09:00:03;;;;;;;37.72;24.85;;;;;;;4.11;100.00;101459.59;10466606;28;20041;-56
2022/02/01 09:05:07;;;;;;;35.67;24.02;;;;;;;4.18;100.00;101447.38;10465150;28;20477;-55
2022/02/01 09:10:10;;;;;;;43.72;29.23;;;;;;;4.25;100.00;101430.78;10464715;28;20115;-57
2022/02/01 09:15:13;;;;;;;29.98;19.70;;;;;;;4.49;100.00;101406.09;10463316;28;20485;-58
2022/02/01 09:20:30;;;;;;;33.22;20.50;;;;;;;4.47;100.00;101387.09;10462812;28;20073;-57
2022/02/01 09:25:33;;;;;;;25.00;18.33;;;;;;;4.47;100.00;101375.03;10462360;28;20136;-56
2022/02/01 09:30:36;;;;;;;30.35;22.10;;;;;;;4.40;100.00;101364.81;10463634;28;20049;-56
2022/02/01 09:35:40;;;;;;;26.35;19.75;;;;;;;4.55;100.00;101337.66;10475946;28;20076;-55
2022/02/01 09:40:42;;;;;;;23.40;17.45;;;;;;;4.56;100.00;101331.59;10464598;28;20045;-57
2022/02/01 09:45:45;;;;;;;28.42;19.58;;;;;;;4.50;100.00;101301.47;10462423;28;20043;-55
2022/02/01 09:51:08;;;;;;;25.05;19.20;;;;;;;4.54;100.00;101304.84;10461781;28;20067;-56
2022/02/01 09:56:10;;;;;;;27.65;20.08;;;;;;;4.70;100.00;101308.75;10462935;28;20131;-59
2022/02/01 10:01:19;;;;;;;24.30;19.42;;;;;;;4.71;100.00;101299.22;10461927;28;20053;-58
2022/02/01 10:06:22;;;;;;;31.15;22.10;;;;;;;4.70;100.00;101310.50;10458786;28;20056;-57
2022/02/01 10:11:35;;;;;;;24.92;18.00;;;;;;;4.83;100.00;101312.75;10460546;28;20053;-56
2022/02/01 10:16:49;;;;;;;28.50;23.23;;;;;;;4.71;100.00;101300.09;10477043;28;20055;-59
2022/02/01 10:21:55;;;;;;;26.90;21.00;;;;;;;4.76;100.00;101274.91;10461939;28;20076;-57
2022/02/01 10:27:08;;;;;;;29.15;21.83;;;;;;;4.78;100.00;101280.91;10461324;28;20059;-56
2022/02/01 10:32:26;;;;;;;24.90;20.08;;;;;;;4.94;100.00;101281.38;10461393;28;20049;-56
2022/02/01 10:37:28;;;;;;;26.38;20.42;;;;;;;4.93;100.00;101276.22;10461151;28;20045;-58
2022/02/01 10:42:31;;;;;;;28.00;21.27;;;;;;;4.97;100.00;101276.06;10460981;28;20056;-56
2022/02/01 10:47:36;;;;;;;26.10;18.20;;;;;;;5.16;100.00;101265.19;10460021;28;20052;-55
2022/02/01 10:52:49;;;;;;;22.90;16.92;;;;;;;5.25;100.00;101262.34;10459508;28;20051;-58
2022/02/01 10:57:52;;;;;;;23.98;16.65;;;;;;;5.39;100.00;101244.63;10477593;28;20049;-59
2022/02/01 11:02:55;;;;;;;21.40;15.10;;;;;;;5.57;100.00;101225.06;10469996;28;20060;-57
2022/02/01 11:08:00;;;;;;;15.13;12.02;;;;;;;5.66;100.00;101241.28;10460030;28;20056;-56
2022/02/01 11:13:10;;;;;;;13.30;10.48;;;;;;;5.66;100.00;101226.53;10459773;28;20055;-59
2022/02/01 11:18:16;;;;;;;12.63;10.00;;;;;;;5.80;100.00;101220.94;10458897;28;20106;-59
2022/02/01 11:23:22;;;;;;;13.18;10.68;;;;;;;5.87;100.00;101201.66;10459281;28;20044;-55
2022/02/01 11:28:47;;;;;;;11.50;9.82;;;;;;;5.98;100.00;101188.34;10459041;28;20045;-58
2022/02/01 11:33:50;;;;;;;10.05;8.98;;;;;;;6.06;100.00;101196.75;10458796;28;20441;-58
2022/02/01 11:38:55;;;;;;;9.20;7.25;;;;;;;6.13;100.00;101184.41;10472811;28;20059;-58
2022/02/01 11:44:34;;;;;;;8.40;7.05;;;;;;;6.11;100.00;101171.44;10477023;28;20091;-58
2022/02/01 11:50:00;;;;;;;10.30;6.72;;;;;;;6.23;100.00;101161.56;10454829;28;20052;-58
2022/02/01 11:55:08;;;;;;;7.00;6.35;;;;;;;6.25;100.00;101157.16;10458477;28;20045;-59
2022/02/01 12:00:29;;;;;;;8.00;6.65;;;;;;;6.29;100.00;101149.19;10458295;28;20128;-58
2022/02/01 12:05:34;;;;;;;7.53;6.50;;;;;;;6.43;100.00;101142.69;10456579;28;20060;-58
2022/02/01 12:10:44;;;;;;;7.60;6.80;;;;;;;6.45;100.00;101141.72;10456086;28;20063;-57
2022/02/01 12:15:48;;;;;;;6.65;5.63;;;;;;;6.46;100.00;101130.41;10457009;28;20445;-57
2022/02/01 12:21:27;;;;;;;8.52;6.57;;;;;;;6.49;100.00;101116.47;10464321;28;20056;-59
2022/02/01 12:26:33;;;;;;;6.32;5.68;;;;;;;6.49;100.00;101106.06;10441862;28;20056;-59
2022/02/01 12:31:39;;;;;;;7.22;6.47;;;;;;;6.59;100.00;101093.53;10456665;28;20049;-56
2022/02/01 12:36:44;;;;;;;9.65;8.65;;;;;;;6.68;100.00;101096.66;10457135;28;20123;-58
2022/02/01 12:42:30;;;;;;;14.13;10.07;;;;;;;6.73;100.00;101075.69;10456553;28;20055;-58
2022/02/01 12:47:24;;;;;;;19.25;13.60;;;;;;;6.84;100.00;101073.56;10455441;28;20052;-58
2022/02/01 12:52:43;;;;;;;20.85;12.43;;;;;;;6.91;100.00;101052.47;10456265;28;20091;-58
2022/02/01 12:57:45;;;;;;;31.25;15.07;;;;;;;7.00;100.00;101057.34;10456626;28;20129;-58
2022/02/01 13:02:48;;;;;;;30.27;17.52;;;;;;;7.02;100.00;101058.13;10464962;28;20055;-59
2022/02/01 13:08:24;;;;;;;32.53;18.15;;;;;;;7.07;100.00;101051.81;10454770;28;20128;-59
2022/02/01 13:23:38;;;;;;;22.98;13.30;;;;;;;7.26;100.00;101027.66;10455902;28;20146;-57
2022/02/01 13:28:42;;;;;;;32.45;12.95;;;;;;;7.23;100.00;101028.66;10455578;28;20503;-58
2022/02/01 13:33:50;;;;;;;31.98;13.13;;;;;;;7.31;100.00;101024.88;10455604;28;20401;-58
2022/02/01 13:38:55;;;;;;;21.75;11.02;;;;;;;7.32;100.00;101016.19;10455837;28;20057;-58
2022/02/01 13:44:01;;;;;;;24.90;11.55;;;;;;;7.38;100.00;101016.78;10471284;28;20057;-57
2022/02/01 13:49:08;;;;;;;23.98;11.00;;;;;;;7.40;100.00;101024.53;10464689;28;20471;-59
2022/02/01 13:54:11;;;;;;;18.40;10.05;;;;;;;7.52;100.00;101018.81;10462880;28;20060;-57
2022/02/01 13:59:18;;;;;;;18.92;8.40;;;;;;;7.62;100.00;101011.47;10462412;28;20504;-58
2022/02/01 14:04:29;;;;;;;20.70;8.38;;;;;;;7.67;100.00;101011.28;10461590;28;20064;-57
2022/02/01 14:25:46;;;;;;;15.52;5.85;;;;;;;7.82;100.00;101018.44;10474164;28;20051;-58
2022/02/01 14:36:11;;;;;;;12.60;6.55;;;;;;;7.77;100.00;101009.97;10461260;28;20098;-59
2022/02/01 14:46:34;;;;;;;13.25;4.85;;;;;;;7.79;100.00;101015.97;10460879;28;20049;-58
2022/02/01 14:51:37;;;;;;;15.25;4.45;;;;;;;7.67;100.00;101008.69;10460315;28;20048;-57
2022/02/01 14:56:41;;;;;;;14.65;4.78;;;;;;;7.72;100.00;101017.16;10460335;28;20068;-59
2022/02/01 15:17:38;;;;;;;15.32;5.00;;;;;;;7.81;100.00;101027.19;10459835;28;20003;-58
2022/02/01 15:22:41;;;;;;;13.60;3.55;;;;;;;7.79;100.00;101036.81;10459440;28;20049;-57
2022/02/01 15:27:43;;;;;;;14.73;3.97;;;;;;;7.87;100.00;101034.75;10459119;28;20477;-58
2022/02/01 15:32:48;;;;;;;20.50;3.92;;;;;;;7.70;100.00;101038.06;10458891;28;20049;-59
2022/02/01 15:37:52;;;;;;;18.92;3.90;;;;;;;7.84;100.00;101044.47;10458695;28;20045;-57
2022/02/01 15:59:15;;;;;;;12.23;3.97;;;;;;;7.91;100.00;101071.97;10458188;28;20048;-59
2022/02/01 16:04:39;;;;;;;16.63;3.50;;;;;;;7.95;100.00;101068.28;10457729;28;20079;-57
2022/02/01 16:10:07;;;;;;;18.40;4.28;;;;;;;7.91;100.00;101064.13;10458117;28;20052;-58
2022/02/01 16:15:09;;;;;;;17.35;3.72;;;;;;;7.87;100.00;101086.00;10457758;28;20044;-61
2022/02/01 16:20:12;;;;;;;22.77;4.35;;;;;;;7.86;100.00;101079.13;10457377;28;20120;-60
2022/02/01 16:25:14;;;;;;;18.10;3.72;;;;;;;7.92;100.00;101082.31;10456120;28;20045;-60
2022/02/01 16:30:32;;;;;;;22.20;4.30;;;;;;;7.96;100.00;101098.69;10471002;28;20048;-59
2022/02/01 16:35:36;;;;;;;25.52;5.55;;;;;;;7.85;100.00;101093.06;10456803;28;20489;-59
2022/02/01 16:40:40;;;;;;;19.35;4.72;;;;;;;7.89;100.00;101098.09;10455554;28;20505;-59
2022/02/01 16:45:43;;;;;;;22.70;4.80;;;;;;;7.90;100.00;101102.41;10456471;28;20052;-59
2022/02/01 16:51:10;;;;;;;22.00;4.70;;;;;;;7.86;100.00;101099.97;10456787;28;20081;-58
2022/02/01 16:56:25;;;;;;;25.75;4.82;;;;;;;7.93;100.00;101112.69;10456294;28;20044;-60
2022/02/01 17:01:35;;;;;;;;;;;;;;;7.90;100.00;101115.44;10456629;28;20045;-58
2022/02/01 17:06:38;;;;;;;25.48;6.13;;;;;;;7.89;100.00;101124.16;10456483;28;19928;-58
2022/02/01 17:22:08;;;;;;;19.75;4.30;;;;;;;7.86;100.00;101134.72;10463751;28;20071;-59
2022/02/01 17:27:11;;;;;;;27.00;5.38;;;;;;;7.96;100.00;101136.03;10464019;28;20053;-58
2022/02/01 17:32:13;;;;;;;34.72;5.88;;;;;;;8.05;100.00;101128.75;10464194;28;20049;-57
2022/02/01 17:37:15;;;;;;;24.40;5.90;;;;;;;7.88;100.00;101137.25;10463627;28;20049;-58
2022/02/01 17:42:18;;;;;;;25.88;6.40;;;;;;;7.95;100.00;101136.09;10463577;28;20067;-59
2022/02/01 17:47:20;;;;;;;23.75;5.25;;;;;;;8.15;100.00;101145.69;10463212;28;20056;-59
2022/02/01 17:57:31;;;;;;;30.02;4.82;;;;;;;8.09;100.00;101161.63;10462711;28;20400;-58
2022/02/01 18:02:33;;;;;;;19.52;4.63;;;;;;;8.10;100.00;101160.69;10462635;28;20052;-58
2022/02/01 18:07:36;;;;;;;24.67;5.38;;;;;;;8.22;100.00;101174.97;10462083;28;20500;-58
2022/02/01 18:12:48;;;;;;;34.85;6.07;;;;;;;8.14;100.00;101196.19;10462127;28;20055;-58
2022/02/01 18:17:51;;;;;;;23.15;5.35;;;;;;;8.10;100.00;101195.47;10462672;28;20045;-59
2022/02/01 18:22:53;;;;;;;24.60;5.28;;;;;;;8.15;100.00;101192.66;10461913;28;20049;-58
2022/02/01 18:27:56;;;;;;;24.00;6.00;;;;;;;8.12;100.00;101179.72;10461011;28;20485;-58
2022/02/01 18:32:58;;;;;;;28.33;8.38;;;;;;;8.13;100.00;101176.22;10473927;28;20493;-60
2022/02/01 18:38:06;;;;;;;47.63;9.68;;;;;;;8.02;100.00;101170.59;10459720;28;20045;-58
2022/02/01 18:43:13;;;;;;;34.78;11.05;;;;;;;8.10;100.00;101182.44;10461852;28;20053;-57
2022/02/01 18:48:17;;;;;;;43.90;13.00;;;;;;;8.03;100.00;101186.16;10459634;28;20048;-58
2022/02/01 18:53:27;;;;;;;29.33;9.90;;;;;;;8.06;100.00;101185.22;10459638;28;20053;-58
2022/02/01 18:58:32;;;;;;;45.03;12.30;;;;;;;8.21;100.00;101192.41;10459493;28;20151;-59
2022/02/01 19:09:24;;;;;;;32.05;7.97;;;;;;;7.99;100.00;101188.06;10423627;28;20068;-59
2022/02/01 19:14:27;;;;;;;36.65;7.60;;;;;;;8.11;100.00;101198.91;10470006;28;20131;-58
2022/02/01 19:19:29;;;;;;;29.08;7.07;;;;;;;8.05;100.00;101193.94;10459695;28;20049;-57
2022/02/01 19:24:35;;;;;;;39.33;7.57;;;;;;;8.07;100.00;101199.94;10459197;28;20438;-58
2022/02/01 19:29:38;;;;;;;25.38;6.22;;;;;;;8.07;100.00;101199.94;10458011;28;20503;-57
2022/02/01 19:34:43;;;;;;;25.13;5.85;;;;;;;8.13;100.00;101208.34;10459839;28;20049;-57
2022/02/01 19:39:51;;;;;;;27.15;6.75;;;;;;;8.14;100.00;101199.63;10457645;28;20053;-58
2022/02/01 19:44:57;;;;;;;26.63;6.05;;;;;;;8.01;100.00;101195.81;10457204;28;20501;-58
2022/02/01 19:50:00;;;;;;;26.65;7.18;;;;;;;8.07;100.00;101233.84;10460275;28;20132;-58
2022/02/01 19:55:04;;;;;;;37.60;7.72;;;;;;;7.87;100.00;101217.25;10469532;28;20132;-58
2022/02/01 20:00:11;;;;;;;25.85;5.22;;;;;;;7.91;100.00;101226.63;10458324;28;20051;-59
2022/02/01 20:05:16;;;;;;;33.83;5.78;;;;;;;7.89;100.00;101217.19;10457964;28;20055;-59
2022/02/01 20:10:19;;;;;;;25.02;5.15;;;;;;;7.90;100.00;101235.38;10458972;28;20045;-59
2022/02/01 20:15:23;;;;;;;33.33;6.03;;;;;;;7.92;100.00;101217.06;10457540;28;20060;-59
2022/02/01 20:20:28;;;;;;;34.05;6.75;;;;;;;7.71;100.00;101250.84;10457829;28;20404;-58
2022/02/01 20:25:33;;;;;;;39.80;7.60;;;;;;;7.76;100.00;101253.28;10457613;28;20098;-56
2022/02/01 20:30:36;;;;;;;28.85;5.93;;;;;;;7.74;100.00;101263.78;10459464;28;20485;-59
2022/02/01 20:35:39;;;;;;;32.78;7.28;;;;;;;7.69;100.00;101257.88;10464362;28;20400;-59
2022/02/01 20:40:44;;;;;;;30.10;7.15;;;;;;;7.77;100.00;101247.19;10456522;28;20059;-57
2022/02/01 20:45:47;;;;;;;38.05;8.30;;;;;;;7.66;100.00;101252.78;10456733;28;20486;-59
2022/02/01 20:50:50;;;;;;;37.20;7.90;;;;;;;7.69;100.00;101257.03;10456384;28;20057;-58
2022/02/01 20:55:53;;;;;;;36.03;7.07;;;;;;;7.52;100.00;101252.47;10456358;28;20088;-59
2022/02/01 21:00:57;;;;;;;29.70;6.57;;;;;;;7.54;100.00;101235.84;10455125;28;20485;-59
2022/02/01 21:05:59;;;;;;;30.58;6.95;;;;;;;7.66;100.00;101244.13;10456185;28;20065;-57
2022/02/01 21:11:02;;;;;;;42.92;8.25;;;;;;;7.63;100.00;101258.97;10457892;28;20045;-57
2022/02/01 21:16:06;;;;;;;37.17;7.72;;;;;;;7.76;100.00;101279.34;10459836;28;20080;-59
2022/02/01 21:21:09;;;;;;;50.25;9.25;;;;;;;7.74;100.00;101279.41;10456159;28;20080;-59
2022/02/01 21:26:11;;;;;;;40.95;7.07;;;;;;;7.87;100.00;101265.91;10455893;28;20063;-59
2022/02/01 21:31:14;;;;;;;43.75;7.43;;;;;;;7.77;100.00;101271.47;10456561;28;20048;-59
2022/02/01 21:36:17;;;;;;;37.83;7.53;;;;;;;7.81;100.00;101257.41;10455628;28;20055;-59
2022/02/01 21:41:20;;;;;;;42.13;8.30;;;;;;;7.77;100.00;101250.63;10455517;28;20053;-59
2022/02/01 21:46:23;;;;;;;47.90;8.38;;;;;;;7.74;100.00;101271.59;10456046;28;20049;-58
2022/02/01 21:51:26;;;;;;;35.63;8.02;;;;;;;7.75;100.00;101275.91;10455444;28;20483;-58
2022/02/01 21:56:29;;;;;;;45.80;7.75;;;;;;;7.85;100.00;101278.16;10464978;28;20053;-59
2022/02/01 22:01:31;;;;;;;43.85;7.15;;;;;;;7.71;100.00;101261.28;10455427;28;20049;-59
2022/02/01 22:06:34;;;;;;;42.10;7.78;;;;;;;7.71;100.00;101266.50;10462218;28;20052;-58
2022/02/01 22:11:36;;;;;;;43.33;6.88;;;;;;;7.70;100.00;101280.44;10462857;28;20055;-58
2022/02/01 22:16:39;;;;;;;39.33;8.65;;;;;;;7.76;100.00;101274.97;10462297;28;20049;-58
2022/02/01 22:21:43;;;;;;;39.65;7.85;;;;;;;7.67;100.00;101266.69;10462307;28;20216;-58
2022/02/01 22:26:45;;;;;;;43.38;6.80;;;;;;;7.68;100.00;101268.38;10461672;28;20045;-58
2022/02/01 22:31:48;;;;;;;48.70;8.30;;;;;;;7.53;100.00;101281.06;10461740;28;20049;-57
2022/02/01 22:36:50;;;;;;;43.80;8.60;;;;;;;7.47;100.00;101288.28;10472065;28;20060;-58
2022/02/01 22:41:52;;;;;;;41.72;9.23;;;;;;;7.33;100.00;101281.81;10460835;28;20057;-58
2022/02/01 22:46:56;;;;;;;53.80;8.73;;;;;;;7.50;100.00;101286.41;10460899;28;20401;-59
2022/02/01 22:51:58;;;;;;;41.28;7.65;;;;;;;7.38;100.00;101305.94;10459638;28;20110;-58
2022/02/01 22:57:00;;;;;;;47.92;8.55;;;;;;;7.47;100.00;101309.13;10460652;28;20049;-55
2022/02/01 23:02:03;;;;;;;48.40;8.82;;;;;;;7.36;100.00;101341.63;10460105;28;20041;-56
2022/02/01 23:07:10;;;;;;;46.50;9.30;;;;;;;7.33;100.00;101346.06;10459938;28;20055;-58
2022/02/01 23:17:49;;;;;;;43.53;8.18;;;;;;;7.18;100.00;101344.84;10467634;28;20045;-58
2022/02/01 23:22:52;;;;;;;46.58;8.65;;;;;;;7.24;100.00;101347.22;10458698;28;20071;-58
2022/02/01 23:28:00;;;;;;;45.00;9.40;;;;;;;7.16;100.00;101333.63;10460113;28;20052;-58
2022/02/01 23:33:12;;;;;;;40.55;8.25;;;;;;;7.11;100.00;101341.63;10459301;28;20059;-58
2022/02/01 23:43:44;;;;;;;50.63;9.85;;;;;;;6.82;100.00;101337.38;10458988;28;20049;-57
2022/02/01 23:48:44;;;;;;;51.45;8.65;;;;;;;6.95;100.00;101340.44;10458020;28;20409;-58
2022/02/01 23:53:47;;;;;;;48.05;9.68;;;;;;;6.77;100.00;101357.50;10458178;28;20482;-57
